createdAt,value
2022-08-27T00:01:47.092Z,2.40
2022-08-27T00:04:09.141Z,2.47
2022-08-27T00:06:31.808Z,2.30
2022-08-27T00:08:54.435Z,2.57
2022-08-27T00:11:19.526Z,2.87
2022-08-27T00:13:41.876Z,3.10
2022-08-27T00:16:08.208Z,2.63
2022-08-27T00:18:30.486Z,2.40
2022-08-27T00:20:52.377Z,2.73
2022-08-27T00:23:14.342Z,3.17
2022-08-27T00:25:36.264Z,2.60
2022-08-27T00:27:58.117Z,2.80
2022-08-27T00:30:23.317Z,2.87
2022-08-27T00:32:45.491Z,2.60
2022-08-27T00:35:08.664Z,2.97
2022-08-27T00:37:30.546Z,3.07
2022-08-27T00:39:53.687Z,2.83
2022-08-27T00:42:16.061Z,2.70
2022-08-27T00:44:38.934Z,2.97
2022-08-27T00:47:07.617Z,3.03
2022-08-27T00:49:40.441Z,3.00
2022-08-27T00:52:24.206Z,2.80
2022-08-27T00:54:47.142Z,2.60
2022-08-27T00:57:09.356Z,2.67
2022-08-27T00:59:32.937Z,3.10
2022-08-27T01:02:14.532Z,2.83
2022-08-27T01:04:40.021Z,3.13
2022-08-27T01:07:03.939Z,3.33
2022-08-27T01:09:27.139Z,2.97
2022-08-27T01:11:49.908Z,3.33
2022-08-27T01:14:12.256Z,3.13
2022-08-27T01:16:40.236Z,3.17
2022-08-27T01:19:08.271Z,3.37
2022-08-27T01:21:41.461Z,3.50
2022-08-27T01:24:59.175Z,3.10
2022-08-27T01:27:27.174Z,3.60
2022-08-27T01:29:49.360Z,3.20
2022-08-27T01:32:21.569Z,3.20
2022-08-27T01:34:44.190Z,3.37
2022-08-27T01:37:07.079Z,3.20
2022-08-27T01:39:30.441Z,3.70
2022-08-27T01:41:52.841Z,3.77
2022-08-27T01:44:16.306Z,3.33
2022-08-27T01:46:40.711Z,3.40
2022-08-27T01:49:02.618Z,3.53
2022-08-27T01:51:24.636Z,3.83
2022-08-27T01:53:47.578Z,3.23
2022-08-27T01:56:09.710Z,3.30
2022-08-27T01:58:33.547Z,2.83
2022-08-27T02:01:00.762Z,3.47
2022-08-27T02:03:22.860Z,3.50
2022-08-27T02:05:47.842Z,3.57
2022-08-27T02:08:09.892Z,3.70
2022-08-27T02:10:37.526Z,3.60
2022-08-27T02:13:00.414Z,3.47
2022-08-27T02:15:24.244Z,3.30
2022-08-27T02:17:47.883Z,3.63
2022-08-27T02:20:11.046Z,3.80
2022-08-27T02:22:33.093Z,3.80
2022-08-27T02:24:55.062Z,3.87
2022-08-27T02:27:17.173Z,4.00
2022-08-27T02:29:39.213Z,3.87
2022-08-27T02:32:02.057Z,4.23
2022-08-27T02:34:23.891Z,4.60
2022-08-27T02:36:46.716Z,4.80
2022-08-27T02:39:08.792Z,4.70
2022-08-27T02:41:31.703Z,4.20
2022-08-27T02:43:53.560Z,4.30
2022-08-27T02:46:15.718Z,4.20
2022-08-27T02:48:40.039Z,4.37
2022-08-27T02:51:02.129Z,4.80
2022-08-27T02:53:24.067Z,4.80
2022-08-27T02:55:46.985Z,4.23
2022-08-27T02:58:09.787Z,4.40
2022-08-27T03:00:33.608Z,4.43
2022-08-27T03:02:57.670Z,4.23
2022-08-27T03:05:20.714Z,4.95
2022-08-27T03:07:42.926Z,4.60
2022-08-27T03:10:06.880Z,4.57
2022-08-27T03:12:28.715Z,5.07
2022-08-27T03:14:51.020Z,5.30
2022-08-27T03:17:31.334Z,4.97
2022-08-27T03:19:53.413Z,5.13
2022-08-27T03:22:15.264Z,5.20
2022-08-27T03:24:37.103Z,5.20
2022-08-27T03:27:02.326Z,4.60
2022-08-27T03:29:24.186Z,4.87
2022-08-27T03:31:46.463Z,4.30
2022-08-27T03:34:09.636Z,4.50
2022-08-27T03:36:31.776Z,4.87
2022-08-27T03:38:54.101Z,4.73
2022-08-27T03:41:16.319Z,4.43
2022-08-27T03:43:38.355Z,4.80
2022-08-27T03:46:01.334Z,5.00
2022-08-27T03:48:24.041Z,4.93
2022-08-27T03:50:49.177Z,5.23
2022-08-27T03:53:11.605Z,5.17
2022-08-27T03:55:33.721Z,4.57
2022-08-27T03:57:55.766Z,4.73
2022-08-27T04:00:17.877Z,5.40
2022-08-27T04:02:42.421Z,5.47
2022-08-27T04:07:28.176Z,5.73
2022-08-27T04:09:50.228Z,5.23
2022-08-27T04:12:12.176Z,5.47
2022-08-27T04:14:34.716Z,5.30
2022-08-27T04:16:57.546Z,4.93
2022-08-27T04:19:20.535Z,5.00
2022-08-27T04:21:44.044Z,5.05
2022-08-27T04:24:06.327Z,5.40
2022-08-27T04:26:29.717Z,5.57
2022-08-27T04:28:51.593Z,5.30
2022-08-27T04:31:16.890Z,5.80
2022-08-27T04:33:38.928Z,5.70
2022-08-27T04:36:07.179Z,5.60
2022-08-27T04:38:29.096Z,5.70
2022-08-27T04:41:09.516Z,5.63
2022-08-27T04:43:31.557Z,6.00
2022-08-27T04:45:53.425Z,6.23
2022-08-27T04:48:18.830Z,5.80
2022-08-27T04:50:47.288Z,5.70
2022-08-27T04:53:11.776Z,6.20
2022-08-27T04:55:33.560Z,6.50
2022-08-27T04:57:55.502Z,6.07
2022-08-27T05:00:17.496Z,7.00
2022-08-27T05:02:39.310Z,6.07
2022-08-27T05:05:01.160Z,6.17
2022-08-27T05:07:23.048Z,6.40
2022-08-27T05:09:44.916Z,6.03
2022-08-27T05:12:08.092Z,6.20
2022-08-27T05:14:30.038Z,6.43
2022-08-27T05:16:52.080Z,6.30
2022-08-27T05:19:15.023Z,6.20
2022-08-27T05:21:40.251Z,5.70
2022-08-27T05:24:06.612Z,6.03
2022-08-27T05:26:30.200Z,6.17
2022-08-27T05:28:52.256Z,6.70
2022-08-27T05:31:17.038Z,6.07
2022-08-27T05:33:40.512Z,6.43
2022-08-27T05:36:02.906Z,6.33
2022-08-27T05:38:29.073Z,6.30
2022-08-27T05:40:51.439Z,6.83
2022-08-27T05:43:14.419Z,6.10
2022-08-27T05:45:49.689Z,6.53
2022-08-27T05:48:17.041Z,5.87
2022-08-27T05:50:44.659Z,6.45
2022-08-27T05:53:07.776Z,5.83
2022-08-27T05:55:29.659Z,5.67
2022-08-27T05:57:51.703Z,5.40
2022-08-27T06:00:32.580Z,5.77
2022-08-27T06:02:54.471Z,5.60
2022-08-27T06:05:16.898Z,6.00
2022-08-27T06:07:38.904Z,5.23
2022-08-27T06:10:01.011Z,5.20
2022-08-27T06:12:27.998Z,6.07
2022-08-27T06:14:50.174Z,5.10
2022-08-27T06:17:11.986Z,5.40
2022-08-27T06:19:34.865Z,5.37
2022-08-27T06:22:00.816Z,5.63
2022-08-27T06:24:32.065Z,5.27
2022-08-27T06:26:54.164Z,5.30
2022-08-27T06:29:17.026Z,4.93
2022-08-27T06:31:40.645Z,5.20
2022-08-27T06:34:07.715Z,5.40
2022-08-27T06:36:31.042Z,5.20
2022-08-27T06:38:54.442Z,5.60
2022-08-27T06:41:23.680Z,5.60
2022-08-27T06:43:46.941Z,4.93
2022-08-27T06:46:15.139Z,5.37
2022-08-27T06:48:38.290Z,5.10
2022-08-27T06:51:01.019Z,5.07
2022-08-27T06:53:24.552Z,4.33
2022-08-27T06:55:49.537Z,4.53
2022-08-27T06:58:11.961Z,4.50
2022-08-27T07:00:34.044Z,4.63
2022-08-27T07:02:56.277Z,4.63
2022-08-27T07:05:19.060Z,4.60
2022-08-27T07:07:46.744Z,3.87
2022-08-27T07:10:11.119Z,4.17
2022-08-27T07:12:33.323Z,4.60
2022-08-27T07:14:55.253Z,4.30
2022-08-27T07:17:18.673Z,4.47
2022-08-27T07:19:41.467Z,4.00
2022-08-27T07:22:03.319Z,3.50
2022-08-27T07:24:25.407Z,3.70
2022-08-27T07:26:47.372Z,3.30
2022-08-27T07:29:15.081Z,3.00
2022-08-27T07:31:38.867Z,2.80
2022-08-27T07:34:00.924Z,2.50
2022-08-27T07:36:24.251Z,2.60
2022-08-27T07:38:52.730Z,2.80
2022-08-27T07:41:19.809Z,3.05
2022-08-27T07:44:00.636Z,2.60
2022-08-27T07:46:24.229Z,2.47
2022-08-27T07:48:46.157Z,2.13
2022-08-27T07:51:17.287Z,2.10
2022-08-27T07:53:39.103Z,2.03
2022-08-27T07:56:06.894Z,1.83
2022-08-27T07:58:29.064Z,2.15
2022-08-27T08:00:51.077Z,2.25
2022-08-27T08:03:13.376Z,2.08
2022-08-27T08:05:35.351Z,2.15
2022-08-27T08:07:57.244Z,2.28
2022-08-27T08:10:22.380Z,2.10
2022-08-27T08:12:44.394Z,2.35
2022-08-27T08:15:11.957Z,2.40
2022-08-27T08:17:35.825Z,2.50
2022-08-27T08:20:18.440Z,2.30
2022-08-27T08:22:40.156Z,2.20
2022-08-27T08:25:02.219Z,2.05
2022-08-27T08:27:24.730Z,2.03
2022-08-27T08:29:48.304Z,1.92
2022-08-27T08:32:10.136Z,1.60
2022-08-27T08:34:32.297Z,2.25
2022-08-27T08:36:55.233Z,1.55
2022-08-27T08:39:19.738Z,1.75
2022-08-27T08:41:52.520Z,1.98
2022-08-27T08:44:46.241Z,1.83
2022-08-27T08:47:16.837Z,2.03
2022-08-27T08:50:29.456Z,1.70
2022-08-27T08:53:09.682Z,1.73
2022-08-27T08:55:45.829Z,1.73
2022-08-27T08:58:30.380Z,1.92
2022-08-27T09:01:01.239Z,1.90
2022-08-27T09:03:23.819Z,1.83
2022-08-27T09:05:59.291Z,2.08
2022-08-27T09:08:36.751Z,1.92
2022-08-27T09:11:26.051Z,1.83
2022-08-27T09:13:59.888Z,2.45
2022-08-27T09:16:21.899Z,1.83
2022-08-27T09:18:45.839Z,2.25
2022-08-27T09:21:35.376Z,1.95
2022-08-27T09:24:03.192Z,1.73
2022-08-27T09:26:29.381Z,1.90
2022-08-27T09:29:18.941Z,1.90
2022-08-27T09:31:41.008Z,2.05
2022-08-27T09:34:05.509Z,1.73
2022-08-27T09:39:04.189Z,1.90
2022-08-27T09:41:36.080Z,1.98
2022-08-27T09:44:00.471Z,1.80
2022-08-27T09:46:26.963Z,1.70
2022-08-27T09:48:49.332Z,2.30
2022-08-27T09:51:29.008Z,2.33
2022-08-27T09:53:57.151Z,1.98
2022-08-27T09:56:34.936Z,2.60
2022-08-27T09:59:12.869Z,2.10
2022-08-27T10:02:01.010Z,1.90
2022-08-27T10:04:50.290Z,1.52
2022-08-27T10:07:30.884Z,1.67
2022-08-27T10:10:01.736Z,1.88
2022-08-27T10:12:59.049Z,1.70
2022-08-27T10:15:24.521Z,2.08
2022-08-27T10:18:17.677Z,1.58
2022-08-27T10:20:54.654Z,1.80
2022-08-27T10:23:45.782Z,1.50
2022-08-27T10:26:16.473Z,1.75
2022-08-27T10:29:08.240Z,1.70
2022-08-27T10:32:16.606Z,1.83
2022-08-27T10:34:52.744Z,1.80
2022-08-27T10:37:52.734Z,1.50
2022-08-27T10:40:32.982Z,1.75
2022-08-27T10:43:52.334Z,1.90
2022-08-27T10:46:50.669Z,1.45
2022-08-27T10:50:12.517Z,1.67
2022-08-27T10:53:32.936Z,1.50
2022-08-27T10:56:14.026Z,1.70
2022-08-27T10:59:33.461Z,1.50
2022-08-27T11:02:28.248Z,1.40
2022-08-27T11:04:57.580Z,1.60
2022-08-27T11:07:38.357Z,1.50
2022-08-27T11:10:08.113Z,1.35
2022-08-27T11:12:37.449Z,1.30
2022-08-27T11:15:19.425Z,1.30
2022-08-27T11:17:53.525Z,1.52
2022-08-27T11:20:42.502Z,1.58
2022-08-27T11:23:17.536Z,1.38
2022-08-27T11:25:55.706Z,1.60
2022-08-27T11:28:30.416Z,1.40
2022-08-27T11:31:17.587Z,1.38
2022-08-27T11:34:03.373Z,1.70
2022-08-27T11:36:47.672Z,1.70
2022-08-27T11:39:21.899Z,1.50
2022-08-27T11:42:20.699Z,1.55
2022-08-27T11:44:46.982Z,1.60
2022-08-27T11:47:20.552Z,1.90
2022-08-27T11:50:19.876Z,1.70
2022-08-27T11:53:01.145Z,1.52
2022-08-27T11:55:29.102Z,1.40
2022-08-27T11:58:22.990Z,1.55
2022-08-27T12:00:46.860Z,1.38
2022-08-27T12:03:35.453Z,1.58
2022-08-27T12:05:58.012Z,1.70
2022-08-27T12:08:24.124Z,1.58
2022-08-27T12:11:23.356Z,1.73
2022-08-27T12:14:04.497Z,1.55
2022-08-27T12:17:00.329Z,1.60
2022-08-27T12:19:36.481Z,1.60
2022-08-27T12:22:59.096Z,1.80
2022-08-27T12:25:23.067Z,2.00
2022-08-27T12:28:03.375Z,1.70
2022-08-27T12:30:39.305Z,1.80
2022-08-27T12:33:35.405Z,1.70
2022-08-27T12:36:09.371Z,1.52
2022-08-27T12:38:46.290Z,1.70
2022-08-27T12:41:14.184Z,1.60
2022-08-27T12:43:43.486Z,1.40
2022-08-27T12:46:13.956Z,1.50
2022-08-27T12:48:47.053Z,1.35
2022-08-27T12:51:24.552Z,1.60
2022-08-27T12:54:19.338Z,1.40
2022-08-27T12:57:23.363Z,1.60
2022-08-27T13:00:14.090Z,1.60
2022-08-27T13:03:11.290Z,1.48
2022-08-27T13:05:41.143Z,1.80
2022-08-27T13:08:03.534Z,1.80
2022-08-27T13:10:31.525Z,1.63
2022-08-27T13:13:11.404Z,1.85
2022-08-27T13:15:35.169Z,1.58
2022-08-27T13:17:57.283Z,1.70
2022-08-27T13:20:26.298Z,1.77
2022-08-27T13:22:49.405Z,2.08
2022-08-27T13:25:31.501Z,2.03
2022-08-27T13:28:08.163Z,1.60
2022-08-27T13:30:36.299Z,1.48
2022-08-27T13:33:00.453Z,1.75
2022-08-27T13:35:23.820Z,1.80
2022-08-27T13:37:53.402Z,1.40
2022-08-27T13:40:36.639Z,1.60
2022-08-27T13:43:08.738Z,1.50
2022-08-27T13:45:31.560Z,1.70
2022-08-27T13:47:54.571Z,1.90
2022-08-27T13:50:30.338Z,1.50
2022-08-27T13:53:20.469Z,1.80
2022-08-27T13:55:49.461Z,1.85
2022-08-27T13:58:30.442Z,2.15
2022-08-27T14:00:53.576Z,1.67
2022-08-27T14:03:35.043Z,1.77
2022-08-27T14:05:57.357Z,1.50
2022-08-27T14:08:20.176Z,1.88
2022-08-27T14:10:57.895Z,2.00
2022-08-27T14:13:25.221Z,1.83
2022-08-27T14:15:51.803Z,1.80
2022-08-27T14:18:57.242Z,1.50
2022-08-27T14:21:14.868Z,1.90
2022-08-27T14:23:36.794Z,2.05
2022-08-27T14:26:01.495Z,2.10
2022-08-27T14:30:45.561Z,1.73
2022-08-27T14:33:07.725Z,1.65
2022-08-27T14:35:35.667Z,1.98
2022-08-27T14:38:01.255Z,1.92
2022-08-27T14:40:23.385Z,2.00
2022-08-27T14:42:45.332Z,2.10
2022-08-27T14:45:08.926Z,2.10
2022-08-27T14:47:33.801Z,2.05
2022-08-27T14:49:55.839Z,1.52
2022-08-27T14:52:17.662Z,2.28
2022-08-27T14:54:41.322Z,1.80
2022-08-27T14:57:05.727Z,1.63
2022-08-27T15:01:50.510Z,1.63
2022-08-27T15:04:12.676Z,1.80
2022-08-27T15:06:34.604Z,1.98
2022-08-27T15:08:56.655Z,1.98
2022-08-27T15:11:26.717Z,2.05
2022-08-27T15:13:49.010Z,1.95
2022-08-27T15:16:27.282Z,1.90
2022-08-27T15:18:53.593Z,1.70
2022-08-27T15:21:23.049Z,1.60
2022-08-27T15:23:49.622Z,1.88
2022-08-27T15:26:11.493Z,2.00
2022-08-27T15:28:37.143Z,1.88
2022-08-27T15:30:59.089Z,1.83
2022-08-27T15:33:21.221Z,1.88
2022-08-27T15:35:43.280Z,1.80
2022-08-27T15:38:05.276Z,1.75
2022-08-27T15:40:32.070Z,2.00
2022-08-27T15:43:00.478Z,1.88
2022-08-27T15:45:25.728Z,1.60
2022-08-27T15:47:49.528Z,1.67
2022-08-27T15:50:11.693Z,1.80
2022-08-27T15:52:40.209Z,1.65
2022-08-27T15:55:04.770Z,2.10
2022-08-27T15:57:26.608Z,1.80
2022-08-27T15:59:49.731Z,2.10
2022-08-27T16:02:23.739Z,2.20
2022-08-27T16:04:49.209Z,1.80
2022-08-27T16:07:11.844Z,1.83
2022-08-27T16:09:33.799Z,1.50
2022-08-27T16:11:55.801Z,1.77
2022-08-27T16:14:17.680Z,1.90
2022-08-27T16:16:42.888Z,1.70
2022-08-27T16:19:06.564Z,1.65
2022-08-27T16:21:29.156Z,1.48
2022-08-27T16:23:51.323Z,1.60
2022-08-27T16:26:13.453Z,1.52
2022-08-27T16:28:35.390Z,1.90
2022-08-27T16:30:58.512Z,1.90
2022-08-27T16:33:22.120Z,1.80
2022-08-27T16:35:44.151Z,2.10
2022-08-27T16:38:06.499Z,1.90
2022-08-27T16:40:28.953Z,1.80
2022-08-27T16:42:52.236Z,1.90
2022-08-27T16:45:17.383Z,2.20
2022-08-27T16:47:59.473Z,2.10
2022-08-27T16:50:36.457Z,1.95
2022-08-27T16:52:58.539Z,1.75
2022-08-27T16:55:20.337Z,1.60
2022-08-27T16:57:42.320Z,1.73
2022-08-27T17:00:06.001Z,1.50
2022-08-27T17:02:34.865Z,1.85
2022-08-27T17:05:12.289Z,1.88
2022-08-27T17:07:39.156Z,2.00
2022-08-27T17:10:05.634Z,1.80
2022-08-27T17:12:27.964Z,1.95
2022-08-27T17:14:51.242Z,2.00
2022-08-27T17:17:13.194Z,2.25
2022-08-27T17:19:37.129Z,2.17
2022-08-27T17:22:01.686Z,1.83
2022-08-27T17:26:45.308Z,1.80
2022-08-27T17:29:07.415Z,1.98
2022-08-27T17:31:41.576Z,1.70
2022-08-27T17:34:07.005Z,1.75
2022-08-27T17:36:31.640Z,1.60
2022-08-27T17:38:56.027Z,1.65
2022-08-27T17:41:34.484Z,1.70
2022-08-27T17:44:01.869Z,1.80
2022-08-27T17:46:26.389Z,1.63
2022-08-27T17:48:48.306Z,1.55
2022-08-27T17:51:12.670Z,1.60
2022-08-27T17:53:34.556Z,1.70
2022-08-27T17:55:56.394Z,1.90
2022-08-27T17:58:19.782Z,1.70
2022-08-27T18:00:44.963Z,1.50
2022-08-27T18:03:18.009Z,1.90
2022-08-27T18:05:39.975Z,1.92
2022-08-27T18:08:01.962Z,1.92
2022-08-27T18:10:26.222Z,2.13
2022-08-27T18:12:48.775Z,2.25
2022-08-27T18:15:19.244Z,1.85
2022-08-27T18:17:43.280Z,1.88
2022-08-27T18:20:08.125Z,2.10
2022-08-27T18:22:32.379Z,2.17
2022-08-27T18:25:02.453Z,2.33
2022-08-27T18:27:35.140Z,1.92
2022-08-27T18:29:57.993Z,2.30
2022-08-27T18:32:19.839Z,1.98
2022-08-27T18:34:41.628Z,1.80
2022-08-27T18:37:03.641Z,2.22
2022-08-27T18:39:25.650Z,2.03
2022-08-27T18:41:48.297Z,1.88
2022-08-27T18:44:16.948Z,1.83
2022-08-27T18:46:40.024Z,1.77
2022-08-27T18:49:01.988Z,1.58
2022-08-27T18:51:24.022Z,1.73
2022-08-27T18:53:47.690Z,1.80
2022-08-27T18:56:12.476Z,2.00
2022-08-27T18:58:40.124Z,1.60
2022-08-27T19:01:03.481Z,1.80
2022-08-27T19:03:34.836Z,1.83
2022-08-27T19:05:57.475Z,1.60
2022-08-27T19:08:24.019Z,1.58
2022-08-27T19:10:46.026Z,1.50
2022-08-27T19:13:07.955Z,1.63
2022-08-27T19:15:29.948Z,1.83
2022-08-27T19:17:57.656Z,1.98
2022-08-27T19:20:20.098Z,1.75
2022-08-27T19:22:41.896Z,1.77
2022-08-27T19:25:07.255Z,1.35
2022-08-27T19:27:30.815Z,1.80
2022-08-27T19:29:54.110Z,1.50
2022-08-27T19:32:16.883Z,1.70
2022-08-27T19:34:38.943Z,1.90
2022-08-27T19:37:02.808Z,2.00
2022-08-27T19:39:25.141Z,1.90
2022-08-27T19:41:47.066Z,1.70
2022-08-27T19:44:09.187Z,2.03
2022-08-27T19:46:32.827Z,2.15
2022-08-27T19:48:55.546Z,2.05
2022-08-27T19:51:17.804Z,1.92
2022-08-27T19:53:39.870Z,2.05
2022-08-27T19:56:03.446Z,2.00
2022-08-27T19:58:25.411Z,2.37
2022-08-27T20:00:48.170Z,2.00
2022-08-27T20:03:11.122Z,2.63
2022-08-27T20:05:33.416Z,2.88
2022-08-27T20:07:55.461Z,2.45
2022-08-27T20:10:31.667Z,2.60
2022-08-27T20:12:58.919Z,2.30
2022-08-27T20:15:23.493Z,2.45
2022-08-27T20:17:49.971Z,2.60
2022-08-27T20:20:17.737Z,2.15
2022-08-27T20:22:44.779Z,2.30
2022-08-27T20:25:07.850Z,2.60
2022-08-27T20:27:30.084Z,2.67
2022-08-27T20:29:57.195Z,2.45
2022-08-27T20:32:24.025Z,2.60
2022-08-27T20:34:49.851Z,2.17
2022-08-27T20:37:12.151Z,2.17
2022-08-27T20:39:34.299Z,2.33
2022-08-27T20:41:56.142Z,2.83
2022-08-27T20:44:18.045Z,2.33
2022-08-27T20:46:40.067Z,2.50
2022-08-27T20:49:02.050Z,2.88
2022-08-27T20:51:25.729Z,2.40
2022-08-27T20:53:47.771Z,2.28
2022-08-27T20:56:09.635Z,2.03
2022-08-27T20:58:50.385Z,2.13
2022-08-27T21:01:12.844Z,2.30
2022-08-27T21:03:34.934Z,2.58
2022-08-27T21:05:56.926Z,2.25
2022-08-27T21:08:21.735Z,2.10
2022-08-27T21:10:51.404Z,2.38
2022-08-27T21:13:14.939Z,2.22
2022-08-27T21:15:36.803Z,2.13
2022-08-27T21:17:58.732Z,2.30
2022-08-27T21:20:20.790Z,1.90
2022-08-27T21:22:43.927Z,2.20
2022-08-27T21:25:07.063Z,1.98
2022-08-27T21:27:29.025Z,2.17
2022-08-27T21:29:51.016Z,2.17
2022-08-27T21:32:14.758Z,2.10
2022-08-27T21:34:37.073Z,2.35
2022-08-27T21:36:59.389Z,2.37
2022-08-27T21:39:21.393Z,2.23
2022-08-27T21:41:43.395Z,2.40
2022-08-27T21:44:05.638Z,2.37
2022-08-27T21:46:28.403Z,2.30
2022-08-27T21:48:58.690Z,2.30
2022-08-27T21:51:24.655Z,2.10
2022-08-27T21:53:46.675Z,2.13
2022-08-27T21:56:09.255Z,2.50
2022-08-27T21:58:31.413Z,2.27
2022-08-27T22:00:53.493Z,2.60
2022-08-27T22:03:19.304Z,2.73
2022-08-27T22:05:44.451Z,2.60
2022-08-27T22:08:06.927Z,2.83
2022-08-27T22:10:29.804Z,2.30
2022-08-27T22:12:53.059Z,2.15
2022-08-27T22:15:21.135Z,2.30
2022-08-27T22:17:48.291Z,2.60
2022-08-27T22:20:13.284Z,2.43
2022-08-27T22:22:35.418Z,2.70
2022-08-27T22:24:57.363Z,3.00
2022-08-27T22:27:20.107Z,2.70
2022-08-27T22:29:41.913Z,3.47
2022-08-27T22:32:07.504Z,3.13
2022-08-27T22:34:29.707Z,3.00
2022-08-27T22:36:51.854Z,2.93
2022-08-27T22:39:13.773Z,3.27
2022-08-27T22:41:35.700Z,3.20
2022-08-27T22:43:57.942Z,3.17
2022-08-27T22:46:20.055Z,3.13
2022-08-27T22:48:43.533Z,3.47
2022-08-27T22:51:06.279Z,3.67
2022-08-27T22:53:31.207Z,3.03
2022-08-27T22:55:53.123Z,3.50
2022-08-27T22:58:15.223Z,3.37
2022-08-27T23:00:40.304Z,3.60
2022-08-27T23:03:05.482Z,3.73
2022-08-27T23:05:29.252Z,3.90
2022-08-27T23:08:07.720Z,3.73
2022-08-27T23:10:29.911Z,3.90
2022-08-27T23:12:53.774Z,3.73
2022-08-27T23:15:18.558Z,3.90
2022-08-27T23:17:40.843Z,4.10
2022-08-27T23:20:06.486Z,4.10
2022-08-27T23:22:28.812Z,3.80
2022-08-27T23:25:09.202Z,4.00
2022-08-27T23:27:31.433Z,4.70
2022-08-27T23:29:53.309Z,4.97
2022-08-27T23:32:15.387Z,4.63
2022-08-27T23:34:37.345Z,4.17
2022-08-27T23:36:59.153Z,4.37
2022-08-27T23:39:20.986Z,4.43
2022-08-27T23:41:44.063Z,4.30
2022-08-27T23:44:06.117Z,4.80
2022-08-27T23:46:28.634Z,4.80
2022-08-27T23:48:50.446Z,4.80
2022-08-27T23:51:12.443Z,4.87
2022-08-27T23:53:35.094Z,4.50
2022-08-27T23:55:57.008Z,5.00
2022-08-27T23:58:19.363Z,5.00
